Time;durP1;ratioP1;P1;durP2;ratioP2;P2;SDS_P1;SDS_P2;PMS_P1;PMS_P2;Temp;Humidity;BMP_temperature;BMP_pressure;BME280_temperature;BME280_humidity;BME280_pressure;Samples;Min_cycle;Max_cycle;Signal;HPM_P1;HPM_P2
2021/05/31 00:01:38;;;;;;;8.90;2.70;;;;;;;;;;10525188;28;20218;-67
2021/05/31 00:06:42;;;;;;;7.60;2.83;;;;;;;;;;10519577;28;20208;-68
2021/05/31 00:11:44;;;;;;;7.87;2.90;;;;;;;;;;10529600;28;20608;-67
2021/05/31 00:16:47;;;;;;;8.50;2.97;;;;;;;;;;10524882;28;20231;-67
2021/05/31 00:21:49;;;;;;;6.33;3.00;;;;;;;;;;10524921;28;20657;-67
2021/05/31 00:26:52;;;;;;;6.50;2.87;;;;;;;;;;10522691;28;20222;-67
2021/05/31 00:31:56;;;;;;;7.83;3.40;;;;;;;;;;10523801;28;20215;-67
2021/05/31 00:36:58;;;;;;;6.60;3.13;;;;;;;;;;10522291;28;20219;-66
2021/05/31 00:42:01;;;;;;;5.80;3.10;;;;;;;;;;10535234;27;20624;-68
2021/05/31 00:47:04;;;;;;;6.20;3.07;;;;;;;;;;10523665;28;20188;-66
2021/05/31 00:52:08;;;;;;;5.60;2.90;;;;;;;;;;10525855;28;20219;-67
2021/05/31 00:57:10;;;;;;;6.07;2.97;;;;;;;;;;10521997;28;20265;-67
2021/05/31 01:02:13;;;;;;;6.50;3.10;;;;;;;;;;10515491;28;20219;-67
2021/05/31 01:07:17;;;;;;;6.47;3.40;;;;;;;;;;10512083;28;20225;-66
2021/05/31 01:12:23;;;;;;;6.30;3.13;;;;;;;;;;10519186;28;20297;-68
2021/05/31 01:17:29;;;;;;;7.77;3.47;;;;;;;;;;10519827;28;20364;-67
2021/05/31 01:22:33;;;;;;;6.90;3.37;;;;;;;;;;10520366;28;20659;-67
2021/05/31 01:27:38;;;;;;;6.63;3.43;;;;;;;;;;10519448;28;20576;-67
2021/05/31 01:32:44;;;;;;;6.87;3.50;;;;;;;;;;10519317;28;20715;-66
2021/05/31 01:37:46;;;;;;;7.47;3.60;;;;;;;;;;10517124;28;20250;-68
2021/05/31 01:42:53;;;;;;;7.07;3.47;;;;;;;;;;10535020;28;20220;-68
2021/05/31 01:47:57;;;;;;;7.80;3.97;;;;;;;;;;10525680;28;20200;-67
2021/05/31 01:53:00;;;;;;;7.40;3.50;;;;;;;;;;10519511;28;20995;-67
2021/05/31 01:58:02;;;;;;;8.93;4.00;;;;;;;;;;10522692;28;20229;-67
2021/05/31 02:03:06;;;;;;;8.53;3.97;;;;;;;;;;10518329;28;20575;-67
2021/05/31 02:08:11;;;;;;;10.23;4.30;;;;;;;;;;10526986;28;20188;-66
2021/05/31 02:13:15;;;;;;;8.30;3.90;;;;;;;;;;10524278;28;20280;-67
2021/05/31 02:18:23;;;;;;;8.30;4.00;;;;;;;;;;10529386;28;20226;-67
2021/05/31 02:23:25;;;;;;;9.33;3.80;;;;;;;;;;10529392;28;20848;-67
2021/05/31 02:28:28;;;;;;;5.87;2.73;;;;;;;;;;10528416;28;20231;-65
2021/05/31 02:33:31;;;;;;;9.27;4.30;;;;;;;;;;10521607;28;20292;-67
2021/05/31 02:38:33;;;;;;;8.27;4.00;;;;;;;;;;10527914;28;20215;-66
2021/05/31 02:43:35;;;;;;;8.80;4.37;;;;;;;;;;10541489;28;20284;-67
2021/05/31 02:48:39;;;;;;;8.50;3.90;;;;;;;;;;10534583;28;20234;-66
2021/05/31 02:53:41;;;;;;;9.23;4.33;;;;;;;;;;10529116;28;20223;-66
2021/05/31 02:58:43;;;;;;;8.67;4.53;;;;;;;;;;10530697;28;20204;-66
2021/05/31 03:03:46;;;;;;;8.60;4.00;;;;;;;;;;10527608;28;20278;-67
2021/05/31 03:08:48;;;;;;;7.07;3.57;;;;;;;;;;10518372;28;20275;-66
2021/05/31 03:13:51;;;;;;;9.33;4.57;;;;;;;;;;10519565;28;20251;-66
2021/05/31 03:18:54;;;;;;;9.43;4.47;;;;;;;;;;10518820;28;20199;-67
2021/05/31 03:23:56;;;;;;;9.87;4.30;;;;;;;;;;10523379;28;20215;-67
2021/05/31 03:28:58;;;;;;;8.63;4.57;;;;;;;;;;10520350;28;20663;-68
2021/05/31 03:34:01;;;;;;;8.93;4.30;;;;;;;;;;10523491;28;20233;-68
2021/05/31 03:39:04;;;;;;;8.37;4.10;;;;;;;;;;10518053;28;20200;-66
2021/05/31 03:44:06;;;;;;;9.73;4.20;;;;;;;;;;10531265;28;20687;-65
2021/05/31 03:49:10;;;;;;;9.33;4.40;;;;;;;;;;10525219;28;20200;-66
2021/05/31 03:54:12;;;;;;;9.13;4.73;;;;;;;;;;10515060;28;20220;-65
2021/05/31 03:59:14;;;;;;;10.07;4.87;;;;;;;;;;10535204;28;20223;-67
2021/05/31 04:04:19;;;;;;;10.20;4.60;;;;;;;;;;10519376;28;20209;-67
2021/05/31 04:14:41;;;;;;;8.60;3.80;;;;;;;;;;10518982;28;20272;-66
2021/05/31 04:20:05;;;;;;;9.50;4.90;;;;;;;;;;10525260;28;20199;-67
2021/05/31 04:25:08;;;;;;;12.70;4.97;;;;;;;;;;10521239;28;20695;-68
2021/05/31 04:30:13;;;;;;;10.00;4.93;;;;;;;;;;10520579;28;20225;-68
2021/05/31 04:35:20;;;;;;;10.87;4.87;;;;;;;;;;10521724;28;20298;-70
2021/05/31 04:40:22;;;;;;;8.77;4.47;;;;;;;;;;10520361;28;20656;-68
2021/05/31 04:45:25;;;;;;;10.17;5.83;;;;;;;;;;10522502;28;20203;-68
2021/05/31 04:50:28;;;;;;;10.03;5.13;;;;;;;;;;10523146;28;20191;-68
2021/05/31 04:55:30;;;;;;;14.03;7.10;;;;;;;;;;10525689;28;20215;-68
2021/05/31 05:00:33;;;;;;;12.20;6.60;;;;;;;;;;10517076;28;20241;-67
2021/05/31 05:05:36;;;;;;;9.23;5.07;;;;;;;;;;10516784;28;20216;-68
2021/05/31 05:10:38;;;;;;;8.63;4.77;;;;;;;;;;10516783;28;20714;-67
2021/05/31 05:15:40;;;;;;;8.33;4.60;;;;;;;;;;10521417;28;20231;-68
2021/05/31 05:20:44;;;;;;;10.90;5.23;;;;;;;;;;10521778;28;20616;-68
2021/05/31 05:25:46;;;;;;;10.30;5.40;;;;;;;;;;10513668;28;20220;-68
2021/05/31 05:30:50;;;;;;;9.93;5.20;;;;;;;;;;10504668;28;20274;-68
2021/05/31 05:35:56;;;;;;;10.97;5.40;;;;;;;;;;10524947;28;20216;-66
2021/05/31 05:41:15;;;;;;;11.90;5.30;;;;;;;;;;10519234;28;20230;-67
2021/05/31 05:46:37;;;;;;;9.97;5.17;;;;;;;;;;10516570;28;20656;-68
2021/05/31 05:51:41;;;;;;;10.67;5.10;;;;;;;;;;10504460;28;20718;-67
2021/05/31 05:56:43;;;;;;;9.30;4.90;;;;;;;;;;10525557;28;20211;-66
2021/05/31 06:01:45;;;;;;;10.07;5.00;;;;;;;;;;10523571;28;20601;-67
2021/05/31 06:06:48;;;;;;;8.33;4.57;;;;;;;;;;10515869;28;22022;-68
2021/05/31 06:11:50;;;;;;;9.97;5.13;;;;;;;;;;10519418;28;20200;-68
2021/05/31 06:16:52;;;;;;;10.20;4.77;;;;;;;;;;10515042;28;20200;-67
2021/05/31 06:21:56;;;;;;;9.13;4.97;;;;;;;;;;10508626;28;20258;-67
2021/05/31 06:27:02;;;;;;;9.23;4.90;;;;;;;;;;10538694;28;20252;-67
2021/05/31 06:32:04;;;;;;;9.00;5.03;;;;;;;;;;10516796;28;20227;-68
2021/05/31 06:37:08;;;;;;;10.47;5.13;;;;;;;;;;10497015;28;20205;-67
2021/05/31 06:42:10;;;;;;;11.30;5.13;;;;;;;;;;10507226;28;20222;-67
2021/05/31 06:47:12;;;;;;;10.87;4.67;;;;;;;;;;10506623;28;20696;-68
2021/05/31 06:52:16;;;;;;;8.57;4.77;;;;;;;;;;10499064;28;20219;-68
2021/05/31 06:57:18;;;;;;;10.57;5.40;;;;;;;;;;10500288;28;20286;-70
2021/05/31 07:02:20;;;;;;;8.63;4.50;;;;;;;;;;10506951;28;20640;-70
2021/05/31 07:07:23;;;;;;;8.83;4.63;;;;;;;;;;10513921;28;20549;-70
2021/05/31 07:12:25;;;;;;;10.83;4.30;;;;;;;;;;10513951;28;20220;-71
2021/05/31 07:17:28;;;;;;;8.77;4.50;;;;;;;;;;10514540;28;20242;-71
2021/05/31 07:22:32;;;;;;;8.00;4.07;;;;;;;;;;10520723;28;20204;-68
2021/05/31 07:27:34;;;;;;;9.37;4.63;;;;;;;;;;10527079;28;20196;-69
2021/05/31 07:32:37;;;;;;;8.30;4.40;;;;;;;;;;10516817;28;20268;-68
2021/05/31 07:37:40;;;;;;;8.60;3.90;;;;;;;;;;10492648;28;20231;-71
2021/05/31 07:42:44;;;;;;;7.83;4.00;;;;;;;;;;10503871;28;20220;-67
2021/05/31 07:47:46;;;;;;;6.30;3.70;;;;;;;;;;10506585;28;20196;-67
2021/05/31 07:52:51;;;;;;;7.70;3.20;;;;;;;;;;10531436;28;20207;-66
2021/05/31 07:57:53;;;;;;;7.50;4.40;;;;;;;;;;10509379;28;20229;-68
2021/05/31 08:02:55;;;;;;;7.28;3.63;;;;;;;;;;10517222;28;20237;-68
2021/05/31 08:07:59;;;;;;;6.63;3.85;;;;;;;;;;10515743;28;20280;-68
2021/05/31 08:13:01;;;;;;;6.85;3.85;;;;;;;;;;10523197;28;20251;-68
2021/05/31 08:18:03;;;;;;;5.40;3.50;;;;;;;;;;10509634;28;20306;-67
2021/05/31 08:23:06;;;;;;;6.20;3.88;;;;;;;;;;10518082;28;20299;-69
2021/05/31 08:28:08;;;;;;;6.00;3.70;;;;;;;;;;10509993;28;20219;-68
2021/05/31 08:33:10;;;;;;;5.10;3.53;;;;;;;;;;10521818;28;20221;-67
2021/05/31 08:38:15;;;;;;;6.60;3.65;;;;;;;;;;10521728;28;20203;-68
2021/05/31 08:43:18;;;;;;;6.68;4.20;;;;;;;;;;10513282;28;20702;-69
2021/05/31 08:48:21;;;;;;;6.78;4.40;;;;;;;;;;10518158;28;20624;-68
2021/05/31 08:53:25;;;;;;;6.88;4.60;;;;;;;;;;10515247;28;20243;-68
2021/05/31 08:58:27;;;;;;;6.18;4.45;;;;;;;;;;10513330;28;20243;-69
2021/05/31 09:03:29;;;;;;;7.15;4.13;;;;;;;;;;10522883;28;20219;-67
2021/05/31 09:08:33;;;;;;;5.70;4.13;;;;;;;;;;10517142;28;20211;-66
2021/05/31 09:13:38;;;;;;;6.30;3.70;;;;;;;;;;10519282;28;20571;-68
2021/05/31 09:18:43;;;;;;;5.93;4.50;;;;;;;;;;10511866;28;20346;-67
2021/05/31 09:23:48;;;;;;;7.50;4.07;;;;;;;;;;10518414;28;20298;-67
2021/05/31 09:28:54;;;;;;;5.72;4.10;;;;;;;;;;10514150;28;20269;-68
2021/05/31 09:33:57;;;;;;;4.97;3.60;;;;;;;;;;10508531;28;20218;-67
2021/05/31 09:39:02;;;;;;;5.60;4.03;;;;;;;;;;10509262;28;20298;-69
2021/05/31 09:44:05;;;;;;;6.60;3.88;;;;;;;;;;10510229;28;20517;-67
2021/05/31 09:49:14;;;;;;;5.95;4.20;;;;;;;;;;10517422;28;20219;-68
2021/05/31 09:54:26;;;;;;;5.55;3.85;;;;;;;;;;10516697;28;20242;-67
2021/05/31 09:59:30;;;;;;;5.53;3.60;;;;;;;;;;10531098;28;20254;-67
2021/05/31 10:04:42;;;;;;;5.35;3.78;;;;;;;;;;10524568;28;20714;-68
2021/05/31 10:09:46;;;;;;;5.50;4.07;;;;;;;;;;10523224;28;20196;-67
2021/05/31 10:14:49;;;;;;;4.60;3.70;;;;;;;;;;10524447;28;20247;-67
2021/05/31 10:19:51;;;;;;;5.90;3.63;;;;;;;;;;10523538;28;20216;-68
2021/05/31 10:24:55;;;;;;;4.93;3.67;;;;;;;;;;10520200;28;20820;-68
2021/05/31 10:29:58;;;;;;;4.30;3.30;;;;;;;;;;10521313;28;20216;-68
2021/05/31 10:35:00;;;;;;;3.85;3.20;;;;;;;;;;10520971;28;20286;-66
2021/05/31 10:40:06;;;;;;;4.60;3.30;;;;;;;;;;10522314;28;20206;-68
2021/05/31 10:45:18;;;;;;;6.38;3.20;;;;;;;;;;10521795;28;20340;-68
2021/05/31 10:50:25;;;;;;;3.97;3.25;;;;;;;;;;10523939;28;20236;-67
2021/05/31 10:55:29;;;;;;;4.30;3.47;;;;;;;;;;10519433;28;20234;-68
2021/05/31 11:00:32;;;;;;;3.97;2.90;;;;;;;;;;10523974;28;20188;-68
2021/05/31 11:05:35;;;;;;;4.00;3.30;;;;;;;;;;10522534;28;20608;-68
2021/05/31 11:10:39;;;;;;;5.20;2.90;;;;;;;;;;10513971;28;20560;-70
2021/05/31 11:15:41;;;;;;;4.65;3.20;;;;;;;;;;10517738;28;20368;-68
2021/05/31 11:20:43;;;;;;;4.03;2.80;;;;;;;;;;10516457;28;20204;-69
2021/05/31 11:25:49;;;;;;;3.97;2.78;;;;;;;;;;10499236;28;20295;-68
2021/05/31 11:30:51;;;;;;;5.35;2.90;;;;;;;;;;10513797;28;20591;-68
2021/05/31 11:35:53;;;;;;;4.40;3.20;;;;;;;;;;10508016;28;20303;-69
2021/05/31 11:40:56;;;;;;;4.30;3.03;;;;;;;;;;10507942;28;20196;-69
2021/05/31 11:45:58;;;;;;;4.45;3.20;;;;;;;;;;10511496;28;20218;-67
2021/05/31 11:51:01;;;;;;;4.82;2.78;;;;;;;;;;10508643;28;20663;-68
2021/05/31 11:56:04;;;;;;;4.15;2.80;;;;;;;;;;10514227;28;20239;-69
2021/05/31 12:01:08;;;;;;;4.50;3.08;;;;;;;;;;10514604;28;20723;-71
2021/05/31 12:06:11;;;;;;;4.72;2.88;;;;;;;;;;10515677;28;20721;-69
2021/05/31 12:11:21;;;;;;;4.50;2.97;;;;;;;;;;10508667;28;22434;-69
2021/05/31 12:16:23;;;;;;;3.53;2.70;;;;;;;;;;10514922;28;20214;-69
2021/05/31 12:21:25;;;;;;;4.50;2.80;;;;;;;;;;10520425;28;20233;-67
2021/05/31 12:26:29;;;;;;;6.72;3.10;;;;;;;;;;10520550;28;20207;-68
2021/05/31 12:31:32;;;;;;;4.03;2.90;;;;;;;;;;10512952;28;20241;-68
2021/05/31 12:36:35;;;;;;;4.70;2.92;;;;;;;;;;10519091;28;20212;-67
2021/05/31 12:41:39;;;;;;;3.95;2.80;;;;;;;;;;10524249;28;20200;-66
2021/05/31 12:46:42;;;;;;;4.03;3.00;;;;;;;;;;10519920;28;20212;-68
2021/05/31 12:51:51;;;;;;;5.82;3.08;;;;;;;;;;10519123;28;22017;-68
2021/05/31 12:56:58;;;;;;;5.50;3.60;;;;;;;;;;10523739;28;20710;-66
2021/05/31 13:02:00;;;;;;;5.45;3.30;;;;;;;;;;10514587;28;20198;-73
2021/05/31 13:07:02;;;;;;;3.95;2.80;;;;;;;;;;10516874;28;20219;-68
2021/05/31 13:12:07;;;;;;;5.65;3.17;;;;;;;;;;10520602;28;20204;-68
2021/05/31 13:17:09;;;;;;;5.00;2.92;;;;;;;;;;10516224;28;20183;-67
2021/05/31 13:22:15;;;;;;;8.77;5.50;;;;;;;;;;10523261;28;20281;-68
2021/05/31 13:27:20;;;;;;;4.90;2.70;;;;;;;;;;10518446;28;20241;-67
2021/05/31 13:32:22;;;;;;;5.53;2.90;;;;;;;;;;10514123;28;20215;-68
2021/05/31 13:37:24;;;;;;;7.05;4.63;;;;;;;;;;10525057;28;20195;-69
2021/05/31 13:42:29;;;;;;;6.28;2.88;;;;;;;;;;10518005;28;20221;-68
2021/05/31 13:47:32;;;;;;;4.32;2.80;;;;;;;;;;10525743;28;20292;-67
2021/05/31 13:52:34;;;;;;;9.95;4.45;;;;;;;;;;10521728;28;20593;-67
2021/05/31 13:57:41;;;;;;;3.63;2.22;;;;;;;;;;10518132;28;20207;-67
2021/05/31 14:02:44;;;;;;;5.53;2.42;;;;;;;;;;10527256;28;20594;-68
2021/05/31 14:07:46;;;;;;;5.65;2.72;;;;;;;;;;10529595;28;20265;-68
2021/05/31 14:12:50;;;;;;;4.25;2.40;;;;;;;;;;10531756;28;20295;-67
2021/05/31 14:17:53;;;;;;;4.35;2.67;;;;;;;;;;10529753;28;20213;-67
2021/05/31 14:22:59;;;;;;;4.82;2.70;;;;;;;;;;10520611;28;20207;-66
2021/05/31 14:28:03;;;;;;;4.38;2.28;;;;;;;;;;10527994;28;20203;-70
2021/05/31 14:33:06;;;;;;;5.85;2.70;;;;;;;;;;10531858;28;20215;-67
2021/05/31 14:38:08;;;;;;;5.18;2.78;;;;;;;;;;10524490;28;20249;-68
2021/05/31 14:43:12;;;;;;;5.70;2.50;;;;;;;;;;10519446;28;20216;-67
2021/05/31 14:48:14;;;;;;;4.55;2.30;;;;;;;;;;10493896;28;20212;-67
2021/05/31 14:53:16;;;;;;;6.90;3.30;;;;;;;;;;10518149;28;20703;-68
2021/05/31 14:58:19;;;;;;;5.82;2.90;;;;;;;;;;10525850;28;20841;-71
2021/05/31 15:03:22;;;;;;;4.20;2.53;;;;;;;;;;10527406;28;20273;-68
2021/05/31 15:08:25;;;;;;;4.75;2.60;;;;;;;;;;10524869;28;20220;-68
2021/05/31 15:13:29;;;;;;;4.28;2.30;;;;;;;;;;10521712;28;20225;-67
2021/05/31 15:18:31;;;;;;;4.88;2.78;;;;;;;;;;10527681;28;20644;-67
2021/05/31 15:23:34;;;;;;;5.63;2.80;;;;;;;;;;10519193;28;20239;-67
2021/05/31 15:28:40;;;;;;;5.85;2.58;;;;;;;;;;10515592;28;20216;-67
2021/05/31 15:33:42;;;;;;;3.70;2.40;;;;;;;;;;10528070;28;20269;-67
2021/05/31 15:38:44;;;;;;;4.57;2.50;;;;;;;;;;10518342;28;20598;-67
2021/05/31 15:43:47;;;;;;;4.60;2.47;;;;;;;;;;10518081;28;20239;-67
2021/05/31 15:48:50;;;;;;;5.27;2.70;;;;;;;;;;10524435;28;20600;-66
2021/05/31 15:53:52;;;;;;;11.93;7.30;;;;;;;;;;10525609;28;20681;-67
2021/05/31 15:58:55;;;;;;;4.60;2.40;;;;;;;;;;10523377;28;20203;-67
2021/05/31 16:03:58;;;;;;;4.13;2.70;;;;;;;;;;10521746;28;20614;-67
2021/05/31 16:09:00;;;;;;;3.63;2.30;;;;;;;;;;10513491;28;20238;-67
2021/05/31 16:14:03;;;;;;;4.40;2.30;;;;;;;;;;10509613;28;20272;-67
2021/05/31 16:19:06;;;;;;;5.60;2.80;;;;;;;;;;10507802;28;20212;-68
2021/05/31 16:24:09;;;;;;;5.30;2.30;;;;;;;;;;10518184;28;20225;-68
2021/05/31 16:29:12;;;;;;;3.77;2.17;;;;;;;;;;10514851;28;20595;-67
2021/05/31 16:34:15;;;;;;;4.73;2.23;;;;;;;;;;10522416;28;20207;-67
2021/05/31 16:39:17;;;;;;;3.57;2.10;;;;;;;;;;10522359;28;20620;-68
2021/05/31 16:44:20;;;;;;;3.23;1.73;;;;;;;;;;10528261;28;20298;-67
2021/05/31 16:49:22;;;;;;;5.30;2.97;;;;;;;;;;10526747;28;20206;-68
2021/05/31 16:54:27;;;;;;;3.23;1.93;;;;;;;;;;10523018;28;20220;-68
2021/05/31 16:59:30;;;;;;;4.57;2.47;;;;;;;;;;10513816;28;20241;-67
2021/05/31 17:04:33;;;;;;;4.37;2.13;;;;;;;;;;10517939;28;20212;-67
2021/05/31 17:09:38;;;;;;;4.57;2.50;;;;;;;;;;10515062;28;20425;-69
2021/05/31 17:14:58;;;;;;;5.80;2.20;;;;;;;;;;10521287;28;20257;-69
2021/05/31 17:20:03;;;;;;;3.47;1.77;;;;;;;;;;10516639;28;20325;-69
2021/05/31 17:25:06;;;;;;;3.67;2.10;;;;;;;;;;10521928;28;20211;-69
2021/05/31 17:30:14;;;;;;;4.83;1.97;;;;;;;;;;10523708;28;20290;-70
2021/05/31 17:35:17;;;;;;;3.63;2.10;;;;;;;;;;10515781;28;20218;-69
2021/05/31 17:40:20;;;;;;;4.17;2.17;;;;;;;;;;10523263;28;20217;-70
2021/05/31 17:45:24;;;;;;;4.43;2.30;;;;;;;;;;10521943;28;20213;-69
2021/05/31 17:50:36;;;;;;;5.30;2.30;;;;;;;;;;10523158;28;20226;-68
2021/05/31 17:55:39;;;;;;;3.30;1.83;;;;;;;;;;10516686;28;20219;-68
2021/05/31 18:00:43;;;;;;;4.43;2.30;;;;;;;;;;10509890;28;20560;-66
2021/05/31 18:05:45;;;;;;;2.60;1.70;;;;;;;;;;10515949;28;20219;-67
2021/05/31 18:10:48;;;;;;;3.83;1.83;;;;;;;;;;10521422;28;20302;-67
2021/05/31 18:15:56;;;;;;;3.70;1.90;;;;;;;;;;10523828;28;20216;-67
2021/05/31 18:20:58;;;;;;;3.90;2.10;;;;;;;;;;10522869;28;20563;-67
2021/05/31 18:26:00;;;;;;;4.37;1.97;;;;;;;;;;10523323;28;20549;-67
2021/05/31 18:31:06;;;;;;;3.30;1.90;;;;;;;;;;10528259;28;20212;-68
2021/05/31 18:36:11;;;;;;;3.60;1.90;;;;;;;;;;10523132;28;20208;-67
2021/05/31 18:41:13;;;;;;;3.80;1.77;;;;;;;;;;10530797;28;20191;-68
2021/05/31 18:46:16;;;;;;;3.00;2.00;;;;;;;;;;10529229;28;20211;-68
2021/05/31 18:51:18;;;;;;;2.70;1.80;;;;;;;;;;10516395;28;20211;-66
2021/05/31 18:56:20;;;;;;;4.53;1.90;;;;;;;;;;10521683;28;20288;-69
2021/05/31 19:01:24;;;;;;;5.03;3.00;;;;;;;;;;10524579;28;20188;-67
2021/05/31 19:06:26;;;;;;;3.33;1.90;;;;;;;;;;10526559;28;20239;-66
2021/05/31 19:11:28;;;;;;;4.20;2.13;;;;;;;;;;10513632;28;20242;-66
2021/05/31 19:16:31;;;;;;;4.40;2.03;;;;;;;;;;10522622;28;20228;-66
2021/05/31 19:21:37;;;;;;;3.40;1.97;;;;;;;;;;10514928;28;20671;-67
2021/05/31 19:26:40;;;;;;;3.93;2.07;;;;;;;;;;10525043;28;20218;-68
2021/05/31 19:31:43;;;;;;;4.80;2.80;;;;;;;;;;10521562;28;20634;-68
2021/05/31 19:36:46;;;;;;;4.77;2.20;;;;;;;;;;10515344;28;20387;-68
2021/05/31 19:41:48;;;;;;;3.70;1.97;;;;;;;;;;10519257;28;20658;-67
2021/05/31 19:46:51;;;;;;;4.63;2.10;;;;;;;;;;10520600;28;20284;-68
2021/05/31 19:51:54;;;;;;;4.77;2.30;;;;;;;;;;10527348;28;20238;-66
2021/05/31 19:57:25;;;;;;;6.43;3.20;;;;;;;;;;10523459;28;20303;-69
2021/05/31 20:02:30;;;;;;;7.50;3.50;;;;;;;;;;10520850;28;20235;-67
2021/05/31 20:07:33;;;;;;;4.57;2.00;;;;;;;;;;10524815;28;20199;-68
2021/05/31 20:12:35;;;;;;;6.37;2.30;;;;;;;;;;10524354;28;20238;-69
2021/05/31 20:17:40;;;;;;;5.17;2.53;;;;;;;;;;10526572;28;20203;-68
2021/05/31 20:22:44;;;;;;;4.27;2.17;;;;;;;;;;10513671;28;20216;-68
2021/05/31 20:27:46;;;;;;;4.00;2.17;;;;;;;;;;10516464;28;20240;-66
2021/05/31 20:32:50;;;;;;;3.87;2.20;;;;;;;;;;10518780;28;20229;-67
2021/05/31 20:37:54;;;;;;;4.93;2.10;;;;;;;;;;10522547;28;20221;-66
2021/05/31 20:42:56;;;;;;;4.93;2.40;;;;;;;;;;10517229;28;20294;-67
2021/05/31 20:47:59;;;;;;;4.30;2.30;;;;;;;;;;10515689;28;20183;-67
2021/05/31 20:53:02;;;;;;;6.40;2.40;;;;;;;;;;10516414;28;20219;-68
2021/05/31 20:58:07;;;;;;;4.30;2.20;;;;;;;;;;10517658;28;20204;-68
2021/05/31 21:03:12;;;;;;;4.77;2.13;;;;;;;;;;10505279;28;20661;-67
2021/05/31 21:08:15;;;;;;;5.53;2.43;;;;;;;;;;10511049;28;20187;-68
2021/05/31 21:13:21;;;;;;;4.80;2.40;;;;;;;;;;10516035;28;20232;-68
2021/05/31 21:18:25;;;;;;;5.37;2.23;;;;;;;;;;10510531;28;20293;-67
2021/05/31 21:23:29;;;;;;;3.63;2.20;;;;;;;;;;10520443;28;20215;-68
2021/05/31 21:28:32;;;;;;;5.27;2.53;;;;;;;;;;10519976;28;20667;-68
2021/05/31 21:33:35;;;;;;;4.97;2.40;;;;;;;;;;10523404;28;20245;-67
2021/05/31 21:38:39;;;;;;;5.60;2.57;;;;;;;;;;10514165;28;20215;-69
2021/05/31 21:43:42;;;;;;;7.20;3.00;;;;;;;;;;10515812;28;20263;-69
2021/05/31 21:48:45;;;;;;;7.00;3.50;;;;;;;;;;10521198;28;20279;-68
2021/05/31 21:53:47;;;;;;;7.50;4.10;;;;;;;;;;10518211;28;20215;-68
2021/05/31 21:58:49;;;;;;;7.77;4.07;;;;;;;;;;10540402;28;20208;-69
2021/05/31 22:03:52;;;;;;;7.87;4.13;;;;;;;;;;10521618;28;20657;-68
2021/05/31 22:08:55;;;;;;;8.57;4.60;;;;;;;;;;10529791;28;20196;-67
2021/05/31 22:14:20;;;;;;;7.17;3.50;;;;;;;;;;10527361;28;20223;-67
2021/05/31 22:19:26;;;;;;;5.33;2.80;;;;;;;;;;10529468;28;20231;-68
2021/05/31 22:24:48;;;;;;;6.63;3.00;;;;;;;;;;10530513;28;20249;-67
2021/05/31 22:35:13;;;;;;;6.90;2.90;;;;;;;;;;10531738;28;20207;-67
2021/05/31 22:40:19;;;;;;;5.07;3.10;;;;;;;;;;10529165;28;20249;-68
2021/05/31 22:56:16;;;;;;;6.00;2.57;;;;;;;;;;10523297;28;20714;-68
2021/05/31 23:07:08;;;;;;;6.00;2.80;;;;;;;;;;10525887;28;20686;-67
2021/05/31 23:12:27;;;;;;;5.13;2.87;;;;;;;;;;10530021;28;20294;-68
2021/05/31 23:17:30;;;;;;;5.50;2.50;;;;;;;;;;10529008;28;20198;-67
2021/05/31 23:22:34;;;;;;;4.73;2.37;;;;;;;;;;10524784;28;20645;-68
2021/05/31 23:27:36;;;;;;;6.17;2.70;;;;;;;;;;10530229;28;20227;-67
2021/05/31 23:32:38;;;;;;;5.27;2.87;;;;;;;;;;10526770;28;20211;-68
2021/05/31 23:37:42;;;;;;;4.80;2.60;;;;;;;;;;10525977;28;20685;-67
2021/05/31 23:42:44;;;;;;;4.87;2.70;;;;;;;;;;10528795;28;20560;-67
2021/05/31 23:47:47;;;;;;;6.13;2.67;;;;;;;;;;10527392;28;20689;-66
2021/05/31 23:52:50;;;;;;;5.57;2.60;;;;;;;;;;10524048;28;20353;-67
2021/05/31 23:57:53;;;;;;;4.57;2.60;;;;;;;;;;10522880;28;20204;-66
